Auburn, Georgia
Current Conditions -  °F | °C
As of 6:45 AM on Saturday 01 Nov 2014 (Local Time) from KLZU Reporting Station
Broken Clouds Broken Clouds  
Wind Chill: 32°   Ceiling: 5500
Heat Index: 39°   Visibility: 10mi
Dew Point: 25°   Wind: 12mph
Humidity: 56%   Direction: 280°W
Pressure: 29.88"   Gusts: 23mph
Location:  34.01°N, 83.83°W
Report Text: KLZU 011045Z 28010G20KT 10SM BKN055 04/M04 A2988 RMK VA APCH RWY 25 ATIS B LL
Loading
Personal Weather Stations






























Interactive Weather Map
Tropical Storm Tracking
New forecast layout! Learn more

10-Day Weather Forecast

Advertisements
Track Severe Weather on mobile